Time;durP1;ratioP1;P1;durP2;ratioP2;P2;SDS_P1;SDS_P2;PMS_P1;PMS_P2;Temp;Humidity;BMP_temperature;BMP_pressure;BME280_temperature;BME280_humidity;BME280_pressure;Samples;Min_cycle;Max_cycle;Signal;HPM_P1;HPM_P2
2023/01/18 00:00:34;;;;;;;15.10;8.10;;;2.70;99.90;;;;;;5105778;28;20046;-69
2023/01/18 00:03:01;;;;;;;11.50;7.40;;;2.70;99.90;;;;;;5098946;28;20571;-70
2023/01/18 00:05:29;;;;;;;11.15;7.82;;;2.70;99.90;;;;;;5107169;28;20432;-71
2023/01/18 00:07:57;;;;;;;15.65;8.45;;;2.70;99.90;;;;;;5107374;28;20237;-71
2023/01/18 00:10:24;;;;;;;14.10;8.23;;;2.70;99.90;;;;;;5109795;28;20093;-69
2023/01/18 00:12:53;;;;;;;13.85;7.93;;;2.70;99.90;;;;;;5112249;28;20043;-69
2023/01/18 00:15:20;;;;;;;14.25;8.15;;;2.70;99.90;;;;;;5111324;28;20134;-69
2023/01/18 00:17:50;;;;;;;15.75;8.77;;;2.70;99.90;;;;;;5095460;28;20051;-70
2023/01/18 00:20:22;;;;;;;14.73;8.30;;;2.70;99.90;;;;;;5108100;28;20174;-70
2023/01/18 00:22:50;;;;;;;18.58;8.23;;;2.70;99.90;;;;;;5109537;28;20465;-69
2023/01/18 00:25:18;;;;;;;12.13;7.70;;;2.80;99.90;;;;;;5108014;28;20130;-70
2023/01/18 00:27:48;;;;;;;14.88;8.43;;;2.80;99.90;;;;;;5110209;28;20044;-70
2023/01/18 00:30:19;;;;;;;14.55;8.20;;;2.80;99.90;;;;;;5112947;28;20138;-70
2023/01/18 00:32:48;;;;;;;14.63;7.50;;;2.70;99.90;;;;;;5112207;28;20120;-70
2023/01/18 00:35:16;;;;;;;15.48;9.40;;;2.80;99.90;;;;;;5110870;28;20160;-70
2023/01/18 00:37:44;;;;;;;16.02;8.40;;;2.80;99.90;;;;;;5112051;28;20138;-70
2023/01/18 00:40:12;;;;;;;15.10;8.90;;;2.80;99.90;;;;;;5111316;28;20035;-69
2023/01/18 00:45:27;;;;;;;19.50;9.77;;;2.80;99.90;;;;;;5091981;28;20572;-69
2023/01/18 00:47:57;;;;;;;19.70;8.80;;;2.80;99.90;;;;;;5093237;28;20047;-70
2023/01/18 00:50:26;;;;;;;13.98;8.95;;;2.80;99.90;;;;;;5103137;28;20051;-69
2023/01/18 00:52:55;;;;;;;16.65;8.93;;;2.90;99.90;;;;;;5111533;28;20050;-69
2023/01/18 00:55:23;;;;;;;16.75;9.05;;;2.80;99.90;;;;;;5110828;28;20138;-69
2023/01/18 00:57:50;;;;;;;17.70;8.63;;;2.80;99.90;;;;;;5111789;28;20479;-69
2023/01/18 01:00:19;;;;;;;16.42;9.60;;;2.90;99.90;;;;;;5110417;28;20139;-70
2023/01/18 01:02:47;;;;;;;14.82;8.27;;;2.90;99.90;;;;;;5112469;28;20134;-70
2023/01/18 01:08:05;;;;;;;16.17;8.05;;;2.90;99.90;;;;;;5102257;28;20098;-69
2023/01/18 01:10:33;;;;;;;15.63;8.40;;;3.00;99.90;;;;;;5096001;28;20097;-70
2023/01/18 01:26:46;;;;;;;9.75;6.70;;;3.00;99.90;;;;;;5111197;28;20062;-69
2023/01/18 01:29:13;;;;;;;9.75;6.47;;;3.00;99.90;;;;;;5111062;28;20056;-69
2023/01/18 01:31:40;;;;;;;8.35;6.15;;;3.10;99.90;;;;;;5110532;28;20127;-70
2023/01/18 01:34:09;;;;;;;8.88;6.40;;;3.10;99.90;;;;;;5110952;28;20062;-70
2023/01/18 01:36:37;;;;;;;9.10;6.07;;;3.10;99.90;;;;;;5111790;28;20135;-70
2023/01/18 01:39:05;;;;;;;7.57;5.82;;;3.10;99.90;;;;;;5109776;28;20162;-70
2023/01/18 01:41:34;;;;;;;6.95;5.05;;;3.20;99.90;;;;;;5108640;28;20105;-70
2023/01/18 01:44:09;;;;;;;7.60;4.93;;;3.20;99.90;;;;;;5110358;28;20050;-71
2023/01/18 01:46:46;;;;;;;6.18;4.43;;;3.20;99.90;;;;;;5106379;28;20069;-70
2023/01/18 01:49:19;;;;;;;6.35;4.97;;;3.20;99.90;;;;;;5108638;28;20083;-69
2023/01/18 01:51:52;;;;;;;5.65;4.40;;;3.10;99.90;;;;;;5097641;28;20546;-70
2023/01/18 01:54:25;;;;;;;6.50;4.85;;;3.00;99.90;;;;;;5101111;28;20130;-70
2023/01/18 01:56:58;;;;;;;4.72;3.92;;;3.00;99.90;;;;;;5110092;28;20043;-70
2023/01/18 01:59:25;;;;;;;4.20;3.72;;;3.00;99.90;;;;;;5109673;28;20134;-70
2023/01/18 02:01:52;;;;;;;4.47;3.92;;;3.00;99.90;;;;;;5108881;28;20502;-69
2023/01/18 02:04:21;;;;;;;6.13;4.07;;;3.00;99.90;;;;;;5110487;28;20071;-70
2023/01/18 02:06:48;;;;;;;6.38;3.90;;;2.90;99.90;;;;;;5110240;28;20040;-70
2023/01/18 02:09:21;;;;;;;3.75;3.35;;;2.90;99.90;;;;;;5099806;28;20044;-70
2023/01/18 02:11:51;;;;;;;5.45;4.43;;;2.90;99.90;;;;;;5100467;28;20052;-70
2023/01/18 02:14:21;;;;;;;4.88;3.63;;;2.90;99.90;;;;;;5101290;28;20405;-69
2023/01/18 02:17:04;;;;;;;4.15;3.72;;;2.80;99.90;;;;;;5100385;28;20051;-70
2023/01/18 02:19:48;;;;;;;;;;;2.80;99.90;;;;;;5111134;28;20039;-70
2023/01/18 02:22:30;;;;;;;3.90;3.50;;;2.80;99.90;;;;;;5111124;28;20360;-70
2023/01/18 02:25:27;;;;;;;4.25;3.58;;;2.70;99.90;;;;;;5106589;28;20128;-69
2023/01/18 02:28:08;;;;;;;4.22;3.67;;;2.70;99.90;;;;;;5090666;28;20105;-69
2023/01/18 02:30:41;;;;;;;3.83;3.40;;;2.60;99.90;;;;;;5108199;28;20142;-69
2023/01/18 02:33:14;;;;;;;3.90;3.47;;;2.60;99.90;;;;;;5110100;28;20048;-70
2023/01/18 02:35:47;;;;;;;;;;;2.60;99.90;;;;;;5109415;28;20040;-70
2023/01/18 02:38:20;;;;;;;5.72;3.53;;;2.60;99.90;;;;;;5110199;28;19923;-69
2023/01/18 02:41:04;;;;;;;4.20;3.67;;;2.60;99.90;;;;;;5110244;28;20134;-69
2023/01/18 02:46:33;;;;;;;3.22;2.92;;;2.50;99.90;;;;;;5107637;28;21760;-69
2023/01/18 02:49:08;;;;;;;4.15;3.67;;;2.50;99.90;;;;;;5111176;28;20100;-69
2023/01/18 02:51:36;;;;;;;3.63;3.25;;;2.40;99.90;;;;;;5111849;28;20127;-68
2023/01/18 02:54:07;;;;;;;3.92;3.33;;;2.40;99.90;;;;;;5112493;28;20511;-70
2023/01/18 02:56:39;;;;;;;3.55;3.22;;;2.40;99.90;;;;;;5114009;28;20079;-70
2023/01/18 02:59:12;;;;;;;4.00;3.55;;;2.40;99.90;;;;;;5113704;27;20040;-68
2023/01/18 03:01:44;;;;;;;3.40;3.10;;;2.40;99.90;;;;;;5110834;28;20047;-69
2023/01/18 03:04:17;;;;;;;4.07;3.53;;;2.40;99.90;;;;;;5105946;28;20062;-69
2023/01/18 03:06:50;;;;;;;4.60;3.25;;;2.40;99.90;;;;;;5100512;28;20096;-69
2023/01/18 03:09:20;;;;;;;4.47;3.00;;;2.30;99.90;;;;;;5113731;28;20515;-68
2023/01/18 03:11:57;;;;;;;4.78;3.70;;;2.30;99.90;;;;;;5102007;28;20052;-69
2023/01/18 03:14:41;;;;;;;3.13;2.85;;;2.40;99.90;;;;;;5111799;28;20069;-69
2023/01/18 03:17:18;;;;;;;4.18;3.20;;;2.40;99.90;;;;;;5110673;28;20043;-68
2023/01/18 03:20:07;;;;;;;3.42;2.97;;;2.40;99.90;;;;;;5103785;28;20132;-69
2023/01/18 03:25:54;;;;;;;4.18;3.42;;;2.40;99.90;;;;;;5110321;28;20438;-70
2023/01/18 03:34:13;;;;;;;4.53;3.95;;;2.20;99.90;;;;;;5102903;28;20494;-69
2023/01/18 03:36:46;;;;;;;4.53;3.80;;;2.20;99.90;;;;;;5110713;28;20504;-69
2023/01/18 03:39:23;;;;;;;4.22;3.08;;;2.20;99.90;;;;;;5112144;28;20096;-69
2023/01/18 03:41:56;;;;;;;4.05;2.90;;;2.20;99.90;;;;;;5112810;28;20070;-69
2023/01/18 03:44:26;;;;;;;;;;;2.20;99.90;;;;;;5114867;28;20047;-70
2023/01/18 03:46:56;;;;;;;4.68;3.90;;;2.20;99.90;;;;;;5107721;28;19928;-69
2023/01/18 03:49:27;;;;;;;4.38;3.40;;;2.20;99.90;;;;;;5113145;28;20496;-69
2023/01/18 03:52:07;;;;;;;3.95;3.55;;;2.20;99.90;;;;;;5112293;28;20423;-70
2023/01/18 03:54:42;;;;;;;6.55;3.78;;;2.20;99.90;;;;;;5107885;28;20059;-69
2023/01/18 03:57:19;;;;;;;5.50;3.63;;;2.20;99.90;;;;;;5104705;28;20043;-70
2023/01/18 03:59:47;;;;;;;4.10;3.60;;;2.20;99.90;;;;;;5111279;28;20128;-70
2023/01/18 04:02:17;;;;;;;6.18;3.70;;;2.30;99.90;;;;;;5108855;28;20059;-69
2023/01/18 04:04:45;;;;;;;4.80;3.55;;;2.30;99.90;;;;;;5103750;28;20059;-65
2023/01/18 04:07:12;;;;;;;3.88;3.40;;;2.30;99.90;;;;;;5099673;28;20044;-69
2023/01/18 04:09:40;;;;;;;4.35;3.95;;;2.30;99.90;;;;;;5111038;28;20102;-69
2023/01/18 04:12:07;;;;;;;7.30;3.92;;;2.30;99.90;;;;;;5107058;28;20055;-69
2023/01/18 04:14:35;;;;;;;4.55;3.78;;;2.30;99.90;;;;;;5103557;28;20077;-69
2023/01/18 04:17:02;;;;;;;5.95;4.05;;;2.30;99.90;;;;;;5104564;27;20055;-72
2023/01/18 04:19:31;;;;;;;3.83;3.42;;;2.30;99.90;;;;;;5106220;28;20044;-71
2023/01/18 04:21:58;;;;;;;4.90;4.43;;;2.30;99.90;;;;;;5100190;28;20040;-72
2023/01/18 04:24:28;;;;;;;4.28;3.75;;;2.40;99.90;;;;;;5102386;28;20135;-72
2023/01/18 04:26:55;;;;;;;4.55;4.15;;;2.40;99.90;;;;;;5103977;28;20077;-74
2023/01/18 04:29:23;;;;;;;5.53;3.92;;;2.40;99.90;;;;;;5104715;28;20509;-72
2023/01/18 04:31:51;;;;;;;6.18;4.13;;;2.50;99.90;;;;;;5104209;28;20056;-68
2023/01/18 04:34:20;;;;;;;4.97;4.43;;;2.50;99.90;;;;;;5111332;28;20495;-67
2023/01/18 04:36:49;;;;;;;5.40;4.50;;;2.50;99.90;;;;;;5109472;27;20055;-67
2023/01/18 04:39:18;;;;;;;5.13;4.63;;;2.40;99.90;;;;;;5096759;28;20043;-68
2023/01/18 04:41:46;;;;;;;4.45;4.03;;;2.50;99.90;;;;;;5101721;28;20063;-68
2023/01/18 04:44:14;;;;;;;5.38;3.70;;;2.50;99.90;;;;;;5094072;28;20055;-68
2023/01/18 04:46:41;;;;;;;4.28;3.88;;;2.50;99.90;;;;;;5108892;28;20396;-68
2023/01/18 04:49:14;;;;;;;6.40;3.85;;;2.50;99.90;;;;;;5102556;28;20035;-66
2023/01/18 04:51:44;;;;;;;4.47;4.07;;;2.50;99.90;;;;;;5100202;28;20056;-68
2023/01/18 04:54:15;;;;;;;4.95;4.20;;;2.50;99.90;;;;;;5092218;28;20060;-68
2023/01/18 04:56:43;;;;;;;11.35;4.53;;;2.50;99.90;;;;;;5094097;28;20048;-67
2023/01/18 04:59:15;;;;;;;4.82;4.25;;;2.60;99.90;;;;;;5101179;28;20054;-72
2023/01/18 05:01:43;;;;;;;4.85;4.35;;;2.60;99.90;;;;;;5102886;28;20100;-73
2023/01/18 05:04:10;;;;;;;4.45;4.05;;;2.60;99.90;;;;;;5108763;27;20262;-73
2023/01/18 05:06:38;;;;;;;8.15;5.68;;;2.70;99.90;;;;;;5115730;27;20068;-73
2023/01/18 05:09:05;;;;;;;8.25;4.95;;;2.70;99.90;;;;;;5109256;28;20035;-71
2023/01/18 05:11:34;;;;;;;5.05;4.55;;;2.70;99.90;;;;;;5107512;28;20481;-74
2023/01/18 05:14:01;;;;;;;4.45;4.03;;;2.70;99.90;;;;;;5108538;28;20051;-73
2023/01/18 05:16:28;;;;;;;5.65;4.60;;;2.70;99.90;;;;;;5109613;28;20075;-73
2023/01/18 05:18:55;;;;;;;6.45;4.65;;;2.70;99.90;;;;;;5109882;27;20051;-73
2023/01/18 05:21:23;;;;;;;7.28;4.70;;;2.80;99.90;;;;;;5100838;28;20442;-73
2023/01/18 05:23:50;;;;;;;5.95;4.93;;;2.70;99.90;;;;;;5105002;28;20044;-73
2023/01/18 05:26:21;;;;;;;4.93;4.43;;;2.80;99.90;;;;;;5102462;28;20048;-73
2023/01/18 05:28:56;;;;;;;4.65;4.10;;;2.70;99.90;;;;;;5099475;28;20047;-72
2023/01/18 05:31:23;;;;;;;5.55;4.40;;;2.70;99.90;;;;;;5099663;28;20507;-72
2023/01/18 05:33:51;;;;;;;4.18;3.70;;;2.70;99.90;;;;;;5100612;28;20479;-73
2023/01/18 05:36:21;;;;;;;5.32;4.15;;;2.70;99.90;;;;;;5101438;28;20585;-72
2023/01/18 05:38:49;;;;;;;5.10;4.60;;;2.80;99.90;;;;;;5103190;28;20054;-72
2023/01/18 05:41:17;;;;;;;4.78;4.38;;;2.70;99.90;;;;;;5100671;28;20039;-72
2023/01/18 05:43:44;;;;;;;5.32;4.82;;;2.70;99.90;;;;;;5100524;28;20191;-72
2023/01/18 05:46:13;;;;;;;5.05;4.55;;;2.70;99.90;;;;;;5099745;28;20082;-73
2023/01/18 05:48:40;;;;;;;7.30;4.75;;;2.70;99.90;;;;;;5110083;27;20056;-72
2023/01/18 05:51:10;;;;;;;5.68;5.07;;;2.70;99.90;;;;;;5110443;28;20054;-72
2023/01/18 05:53:38;;;;;;;5.65;5.15;;;2.70;99.90;;;;;;5098246;28;20514;-73
2023/01/18 05:56:07;;;;;;;5.93;4.80;;;2.70;99.90;;;;;;5076745;28;20051;-72
2023/01/18 05:58:37;;;;;;;6.35;5.57;;;2.70;99.90;;;;;;5099635;28;20146;-72
2023/01/18 06:01:06;;;;;;;5.70;5.20;;;2.70;99.90;;;;;;5096609;28;20050;-72
2023/01/18 06:03:36;;;;;;;6.65;5.35;;;2.70;99.90;;;;;;5096688;28;20070;-72
2023/01/18 06:06:04;;;;;;;12.73;6.20;;;2.70;99.90;;;;;;5111102;27;20047;-72
2023/01/18 06:08:31;;;;;;;9.07;5.65;;;2.80;99.90;;;;;;5107424;28;20130;-72
2023/01/18 06:10:59;;;;;;;7.80;5.53;;;2.80;99.90;;;;;;5095798;28;20138;-72
2023/01/18 06:13:30;;;;;;;7.53;6.05;;;2.80;99.90;;;;;;5101329;28;20158;-73
2023/01/18 06:16:00;;;;;;;9.88;6.65;;;2.80;99.90;;;;;;5103236;28;20047;-72
2023/01/18 06:18:30;;;;;;;8.88;6.50;;;2.80;99.90;;;;;;5102857;28;20046;-72
2023/01/18 06:21:01;;;;;;;8.80;6.25;;;2.80;99.90;;;;;;5091135;28;20538;-67
2023/01/18 06:23:30;;;;;;;7.80;6.53;;;2.80;99.90;;;;;;5098532;28;20043;-68
2023/01/18 06:25:57;;;;;;;7.43;6.38;;;2.90;99.90;;;;;;5104039;27;20048;-67
2023/01/18 06:28:25;;;;;;;11.20;7.57;;;2.90;99.90;;;;;;5104066;28;20470;-67
2023/01/18 06:30:54;;;;;;;11.70;7.93;;;2.90;99.90;;;;;;5104535;28;20117;-70
2023/01/18 06:33:21;;;;;;;12.75;8.18;;;2.90;99.90;;;;;;5106623;28;20052;-68
2023/01/18 06:35:49;;;;;;;10.93;8.35;;;2.80;99.90;;;;;;5104213;28;20040;-69
2023/01/18 06:38:18;;;;;;;13.02;7.93;;;2.90;99.90;;;;;;5106948;28;20136;-68
2023/01/18 06:40:45;;;;;;;8.95;7.75;;;2.90;99.90;;;;;;5108620;27;20039;-68
2023/01/18 06:43:13;;;;;;;11.50;8.25;;;2.90;99.90;;;;;;5094974;28;20052;-68
2023/01/18 06:45:40;;;;;;;13.80;10.75;;;2.90;99.90;;;;;;5099612;28;20040;-68
2023/01/18 06:48:08;;;;;;;11.15;8.80;;;2.90;99.90;;;;;;5114258;28;20056;-67
2023/01/18 06:50:35;;;;;;;10.88;7.38;;;2.90;99.90;;;;;;5100011;28;20040;-68
2023/01/18 06:53:02;;;;;;;9.23;7.85;;;2.90;99.90;;;;;;5108345;28;20082;-70
2023/01/18 06:55:33;;;;;;;10.85;8.57;;;2.90;99.90;;;;;;5111220;28;20068;-68
2023/01/18 06:58:01;;;;;;;10.23;7.28;;;2.90;99.90;;;;;;5116490;27;20065;-68
2023/01/18 07:00:28;;;;;;;10.02;7.30;;;2.90;99.90;;;;;;5127320;27;20044;-68
2023/01/18 07:02:57;;;;;;;10.93;7.70;;;2.90;99.90;;;;;;5110781;28;20078;-68
2023/01/18 07:05:24;;;;;;;10.70;7.72;;;2.90;99.90;;;;;;5110596;28;20112;-68
2023/01/18 07:07:51;;;;;;;11.95;7.80;;;2.90;99.90;;;;;;5114499;28;20411;-69
2023/01/18 07:10:19;;;;;;;8.23;7.28;;;2.90;99.90;;;;;;5114110;28;20043;-68
2023/01/18 07:12:49;;;;;;;8.45;7.18;;;2.90;99.90;;;;;;5113459;28;20083;-68
2023/01/18 07:15:17;;;;;;;6.45;5.53;;;3.00;99.90;;;;;;5112983;28;20379;-69
2023/01/18 07:17:44;;;;;;;6.05;5.45;;;3.00;99.90;;;;;;5114004;28;20097;-68
2023/01/18 07:20:14;;;;;;;8.68;5.53;;;3.00;99.90;;;;;;5117968;27;20086;-68
2023/01/18 07:22:42;;;;;;;7.18;5.75;;;2.90;99.90;;;;;;5115067;27;20476;-68
2023/01/18 07:25:12;;;;;;;7.25;5.70;;;3.00;99.90;;;;;;5103923;28;20044;-68
2023/01/18 07:27:42;;;;;;;7.60;6.00;;;3.00;99.90;;;;;;5108214;28;20043;-69
2023/01/18 07:30:12;;;;;;;8.25;4.82;;;2.90;99.90;;;;;;5112058;28;20047;-74
2023/01/18 07:32:40;;;;;;;6.50;5.20;;;3.00;99.90;;;;;;5111569;28;20132;-73
2023/01/18 07:35:08;;;;;;;4.38;3.92;;;3.00;99.90;;;;;;5109422;28;20507;-74
2023/01/18 07:37:36;;;;;;;4.93;3.67;;;2.90;99.90;;;;;;5092715;28;20060;-74
2023/01/18 07:40:05;;;;;;;4.78;4.10;;;2.90;99.90;;;;;;5091300;28;20055;-74
2023/01/18 07:42:33;;;;;;;4.47;4.00;;;2.90;99.90;;;;;;5091010;28;20048;-72
2023/01/18 07:45:00;;;;;;;4.60;4.20;;;2.90;99.90;;;;;;5092553;28;20043;-72
2023/01/18 07:47:29;;;;;;;3.92;2.85;;;2.90;99.90;;;;;;5110327;28;20051;-74
2023/01/18 07:49:56;;;;;;;3.58;3.03;;;3.00;99.90;;;;;;5112652;28;20043;-74
2023/01/18 07:52:24;;;;;;;2.75;2.55;;;3.00;99.90;;;;;;5113677;28;20052;-75
2023/01/18 07:54:51;;;;;;;4.10;3.33;;;3.00;99.90;;;;;;5112756;28;20048;-73
2023/01/18 07:57:19;;;;;;;3.42;3.13;;;3.00;99.90;;;;;;5100351;28;20044;-74
2023/01/18 07:59:46;;;;;;;3.03;2.72;;;3.00;99.90;;;;;;5113182;28;20065;-75
2023/01/18 08:02:21;;;;;;;3.13;2.70;;;2.90;99.90;;;;;;5103947;28;20494;-76
2023/01/18 08:05:22;;;;;;;5.03;2.80;;;3.00;99.90;;;;;;5104588;28;20101;-73
2023/01/18 08:07:58;;;;;;;3.35;3.05;;;3.00;99.90;;;;;;5092167;28;20048;-75
2023/01/18 08:10:28;;;;;;;3.08;2.55;;;3.00;99.90;;;;;;5105416;28;20420;-75
2023/01/18 08:12:56;;;;;;;5.70;2.95;;;3.00;99.90;;;;;;5113351;28;20087;-75
2023/01/18 08:15:24;;;;;;;2.75;2.55;;;3.10;99.90;;;;;;5105568;28;20129;-74
2023/01/18 08:17:54;;;;;;;3.70;3.40;;;3.10;99.90;;;;;;5103187;28;20105;-67
2023/01/18 08:20:23;;;;;;;4.88;2.80;;;3.10;99.90;;;;;;5108213;28;20069;-67
2023/01/18 08:22:56;;;;;;;5.25;2.50;;;3.10;99.90;;;;;;5109935;28;20055;-68
2023/01/18 08:25:28;;;;;;;3.10;2.80;;;3.20;99.90;;;;;;5109814;28;20062;-68
2023/01/18 08:27:58;;;;;;;3.78;3.15;;;3.20;99.90;;;;;;5112892;28;20052;-68
2023/01/18 08:30:27;;;;;;;3.38;2.60;;;3.10;99.90;;;;;;5112838;28;20048;-73
2023/01/18 08:32:56;;;;;;;3.45;2.97;;;3.20;99.90;;;;;;5109952;28;20054;-76
2023/01/18 08:35:26;;;;;;;2.95;2.75;;;3.20;99.90;;;;;;5118423;27;20055;-75
2023/01/18 08:37:53;;;;;;;3.00;2.70;;;3.30;99.90;;;;;;5127713;27;20047;-72
2023/01/18 08:40:23;;;;;;;2.70;2.50;;;3.30;99.90;;;;;;5110997;28;20040;-73
2023/01/18 08:42:50;;;;;;;3.75;3.00;;;3.30;99.90;;;;;;5112272;28;20055;-74
2023/01/18 08:45:18;;;;;;;3.53;2.97;;;3.30;99.90;;;;;;5112095;28;20051;-73
2023/01/18 08:47:45;;;;;;;3.45;3.15;;;3.40;99.90;;;;;;5110187;28;20051;-72
2023/01/18 08:50:13;;;;;;;7.47;2.70;;;3.40;99.90;;;;;;5112421;28;20067;-73
2023/01/18 08:52:41;;;;;;;3.83;2.63;;;3.40;99.90;;;;;;5112230;28;20145;-75
2023/01/18 08:55:10;;;;;;;7.60;3.08;;;3.40;99.90;;;;;;5112623;28;20043;-73
2023/01/18 08:57:37;;;;;;;5.00;2.65;;;3.40;99.90;;;;;;5108775;28;20052;-75
2023/01/18 09:00:07;;;;;;;3.47;2.33;;;3.40;99.90;;;;;;5104041;28;20522;-73
2023/01/18 09:02:35;;;;;;;3.58;2.65;;;3.40;99.90;;;;;;5112154;28;20457;-74
2023/01/18 09:05:02;;;;;;;3.00;2.22;;;3.50;99.90;;;;;;5110129;28;20074;-74
2023/01/18 09:07:30;;;;;;;3.78;3.42;;;3.50;99.90;;;;;;5106221;28;20102;-72
2023/01/18 09:09:59;;;;;;;3.90;3.33;;;3.40;99.90;;;;;;5103361;28;20040;-73
2023/01/18 09:12:26;;;;;;;3.10;2.80;;;3.50;99.90;;;;;;5093308;28;20083;-73
2023/01/18 09:14:54;;;;;;;5.10;2.85;;;3.50;99.90;;;;;;5091632;28;20040;-73
2023/01/18 09:17:21;;;;;;;2.70;2.35;;;3.50;99.90;;;;;;5107790;28;20134;-73
2023/01/18 09:19:49;;;;;;;2.45;2.25;;;3.50;99.90;;;;;;5110545;28;20044;-75
2023/01/18 09:22:16;;;;;;;3.42;3.13;;;3.50;99.90;;;;;;5098310;28;20113;-73
2023/01/18 09:24:43;;;;;;;3.17;2.80;;;3.60;99.90;;;;;;5100114;27;20043;-74
2023/01/18 09:27:13;;;;;;;2.95;2.65;;;3.60;99.90;;;;;;5111452;28;20055;-75
2023/01/18 09:29:40;;;;;;;3.70;2.90;;;3.60;99.90;;;;;;5111602;28;20047;-72
2023/01/18 09:32:08;;;;;;;3.05;2.75;;;3.60;99.90;;;;;;5111432;28;20356;-74
2023/01/18 09:34:35;;;;;;;3.97;2.75;;;3.60;99.90;;;;;;5105046;28;20039;-73
2023/01/18 09:37:03;;;;;;;2.92;2.60;;;3.60;99.90;;;;;;5094633;28;20097;-69
2023/01/18 09:39:30;;;;;;;2.80;2.50;;;3.60;99.90;;;;;;5091083;28;20123;-67
2023/01/18 09:42:01;;;;;;;2.78;2.38;;;3.60;99.90;;;;;;5091298;28;20044;-66
2023/01/18 09:44:34;;;;;;;4.63;3.15;;;3.60;99.90;;;;;;5091121;28;20055;-67
2023/01/18 09:47:07;;;;;;;3.63;2.75;;;3.60;99.90;;;;;;5094457;28;20067;-68
2023/01/18 09:49:39;;;;;;;3.88;2.25;;;3.60;99.90;;;;;;5120574;27;20055;-68
2023/01/18 09:52:25;;;;;;;3.13;2.83;;;3.70;99.90;;;;;;5110902;28;20079;-69
2023/01/18 09:55:01;;;;;;;6.43;3.35;;;3.70;99.90;;;;;;5106134;28;20339;-68
2023/01/18 09:57:46;;;;;;;3.08;2.78;;;3.60;99.90;;;;;;5108686;28;20535;-69
2023/01/18 10:00:22;;;;;;;3.60;3.30;;;3.60;99.90;;;;;;5110009;28;20525;-69
2023/01/18 10:02:54;;;;;;;3.28;2.90;;;3.70;99.90;;;;;;5106076;28;20043;-71
2023/01/18 10:05:26;;;;;;;3.83;3.15;;;3.70;99.90;;;;;;5091651;28;20052;-68
2023/01/18 10:08:03;;;;;;;3.60;3.30;;;3.70;99.90;;;;;;5090330;28;20052;-69
2023/01/18 10:10:38;;;;;;;3.35;3.05;;;3.70;99.90;;;;;;5090482;28;20060;-70
2023/01/18 10:13:28;;;;;;;3.42;3.00;;;3.70;99.90;;;;;;5089598;28;20508;-68
2023/01/18 10:15:57;;;;;;;3.72;3.25;;;3.70;99.90;;;;;;5075435;28;20103;-69
2023/01/18 10:18:25;;;;;;;3.97;2.88;;;3.80;99.90;;;;;;5098917;28;20062;-70
2023/01/18 10:20:58;;;;;;;2.80;2.60;;;3.80;99.90;;;;;;5093642;28;20105;-67
2023/01/18 10:23:30;;;;;;;4.45;3.28;;;3.80;99.90;;;;;;5096686;28;20051;-69
2023/01/18 10:26:03;;;;;;;3.30;2.97;;;3.80;99.90;;;;;;5107346;28;20047;-69
2023/01/18 10:28:47;;;;;;;4.20;3.10;;;3.80;99.90;;;;;;5109652;28;20051;-68
2023/01/18 10:31:34;;;;;;;3.33;3.00;;;3.80;99.90;;;;;;5110848;28;20051;-69
2023/01/18 10:34:04;;;;;;;3.10;2.72;;;3.90;99.90;;;;;;5091148;28;20052;-68
2023/01/18 10:36:37;;;;;;;4.65;3.35;;;3.90;99.90;;;;;;5097693;28;20083;-68
2023/01/18 10:39:22;;;;;;;3.50;3.20;;;3.90;99.90;;;;;;5110803;28;20138;-68
2023/01/18 10:41:51;;;;;;;4.90;3.28;;;3.80;99.90;;;;;;5108875;28;20455;-68
2023/01/18 10:44:22;;;;;;;5.03;3.63;;;3.80;99.90;;;;;;5112194;28;20147;-67
2023/01/18 10:46:56;;;;;;;4.28;2.83;;;3.90;99.90;;;;;;5095910;28;20378;-68
2023/01/18 10:49:38;;;;;;;3.17;2.70;;;3.90;99.90;;;;;;5105549;28;20134;-68
2023/01/18 10:52:25;;;;;;;3.75;3.00;;;4.00;99.90;;;;;;5116201;28;20051;-70
2023/01/18 10:54:56;;;;;;;5.20;3.28;;;4.00;99.90;;;;;;5105022;28;20092;-69
2023/01/18 10:57:30;;;;;;;4.53;3.38;;;3.90;99.90;;;;;;5107822;28;20087;-70
2023/01/18 10:59:58;;;;;;;10.35;6.63;;;3.90;99.90;;;;;;5090147;28;20080;-69
2023/01/18 11:02:32;;;;;;;4.47;3.45;;;3.90;99.90;;;;;;5107164;28;20134;-69
2023/01/18 11:05:12;;;;;;;5.90;4.00;;;4.00;99.90;;;;;;5100847;28;20096;-68
2023/01/18 11:07:39;;;;;;;3.40;3.08;;;4.00;99.90;;;;;;5105321;28;20044;-69
2023/01/18 11:10:23;;;;;;;4.72;4.00;;;4.10;99.90;;;;;;5107526;27;20043;-69
2023/01/18 11:12:53;;;;;;;5.03;3.75;;;4.00;99.90;;;;;;5122390;27;20090;-69
2023/01/18 11:15:28;;;;;;;5.57;3.28;;;4.00;99.90;;;;;;5093989;28;20059;-70
2023/01/18 11:18:10;;;;;;;3.58;3.17;;;4.10;99.90;;;;;;5107765;28;20094;-68
2023/01/18 11:20:46;;;;;;;4.20;2.83;;;4.10;99.90;;;;;;5112834;28;20050;-69
2023/01/18 11:23:25;;;;;;;3.88;3.33;;;4.10;99.90;;;;;;5118445;27;20058;-71
2023/01/18 11:25:58;;;;;;;3.72;3.42;;;4.00;99.90;;;;;;5107494;27;20066;-69
2023/01/18 11:28:30;;;;;;;3.42;3.13;;;4.00;99.90;;;;;;5098325;28;20552;-69
2023/01/18 11:31:06;;;;;;;6.70;3.13;;;4.00;99.90;;;;;;5109491;27;20047;-69
2023/01/18 11:33:39;;;;;;;4.53;3.10;;;4.00;99.90;;;;;;5115589;27;20467;-70
2023/01/18 11:36:07;;;;;;;3.38;3.08;;;4.00;99.90;;;;;;5109439;27;20046;-70
2023/01/18 11:38:35;;;;;;;4.53;3.40;;;3.90;99.90;;;;;;5108759;27;20495;-70
2023/01/18 11:41:14;;;;;;;4.65;3.58;;;4.00;99.90;;;;;;5106755;27;20414;-69
2023/01/18 11:43:59;;;;;;;3.70;3.03;;;4.00;99.90;;;;;;5104939;27;20055;-71
2023/01/18 11:46:43;;;;;;;5.13;4.05;;;4.10;99.90;;;;;;5111067;28;20062;-69
2023/01/18 11:49:29;;;;;;;5.80;4.10;;;4.10;99.90;;;;;;5116730;27;20051;-71
2023/01/18 11:52:02;;;;;;;7.30;4.20;;;4.10;99.90;;;;;;5103572;28;20594;-68
2023/01/18 11:54:37;;;;;;;4.05;3.55;;;4.20;99.90;;;;;;5099664;28;20055;-68
2023/01/18 11:57:09;;;;;;;5.03;3.92;;;4.10;99.90;;;;;;5099629;28;20044;-71
2023/01/18 11:59:41;;;;;;;4.50;4.03;;;4.20;99.90;;;;;;5102335;28;20051;-77
2023/01/18 12:02:48;;;;;;;4.43;3.50;;;4.20;99.90;;;;;;5111871;28;20143;-75
2023/01/18 12:05:31;;;;;;;4.28;3.85;;;4.20;99.90;;;;;;5103590;27;20379;-75
2023/01/18 12:08:37;;;;;;;5.90;4.22;;;4.20;99.90;;;;;;5104498;28;20142;-76
2023/01/18 12:11:23;;;;;;;7.93;4.68;;;4.20;99.90;;;;;;5109985;28;20557;-69
2023/01/18 12:14:00;;;;;;;5.45;4.53;;;4.10;99.90;;;;;;5098909;28;20108;-68
2023/01/18 12:16:46;;;;;;;6.13;5.20;;;4.20;99.90;;;;;;5102473;28;20044;-68
2023/01/18 12:19:46;;;;;;;6.75;5.50;;;4.20;99.90;;;;;;5092737;28;20039;-68
2023/01/18 12:23:00;;;;;;;8.52;7.18;;;4.20;99.90;;;;;;5092573;28;20071;-68
2023/01/18 12:26:00;;;;;;;12.95;9.77;;;4.20;99.90;;;;;;5091226;28;20084;-69
2023/01/18 12:28:46;;;;;;;17.15;11.10;;;4.20;99.90;;;;;;5094872;28;20051;-69
2023/01/18 12:31:29;;;;;;;11.23;9.30;;;4.20;99.90;;;;;;5085739;28;20052;-70
2023/01/18 12:34:04;;;;;;;14.60;10.27;;;4.20;99.90;;;;;;5104732;28;20534;-69
2023/01/18 12:36:54;;;;;;;13.18;8.73;;;4.20;99.90;;;;;;5103258;28;20135;-68
2023/01/18 12:39:46;;;;;;;19.05;8.50;;;4.20;99.90;;;;;;5098854;28;20048;-69
2023/01/18 12:42:23;;;;;;;7.90;6.22;;;4.20;99.90;;;;;;5109851;27;20524;-68
2023/01/18 12:45:13;;;;;;;9.52;6.15;;;4.20;99.90;;;;;;5115541;27;20082;-68
2023/01/18 12:47:46;;;;;;;11.88;6.78;;;4.20;99.90;;;;;;5110145;28;20047;-74
2023/01/18 12:50:24;;;;;;;14.85;7.63;;;4.20;99.90;;;;;;5112771;28;20104;-75
2023/01/18 12:52:55;;;;;;;12.82;6.97;;;4.20;99.90;;;;;;5103997;28;20071;-77
2023/01/18 12:55:32;;;;;;;14.85;7.72;;;4.20;99.90;;;;;;5101109;28;20504;-76
2023/01/18 12:58:01;;;;;;;11.10;7.45;;;4.10;99.90;;;;;;5096051;28;20623;-76
2023/01/18 13:00:37;;;;;;;15.10;8.23;;;4.10;99.90;;;;;;5115199;27;20051;-70
2023/01/18 13:03:11;;;;;;;9.85;7.22;;;4.10;99.90;;;;;;5099740;28;20052;-69
2023/01/18 13:05:51;;;;;;;16.70;8.98;;;4.10;99.90;;;;;;5106711;27;20095;-68
2023/01/18 13:08:38;;;;;;;14.23;8.82;;;4.00;99.90;;;;;;5094962;28;20062;-68
2023/01/18 13:11:17;;;;;;;15.80;8.32;;;4.10;99.90;;;;;;5110719;28;20075;-68
2023/01/18 13:13:45;;;;;;;18.15;9.13;;;4.00;99.90;;;;;;5104090;28;20058;-71
2023/01/18 13:16:32;;;;;;;12.77;8.88;;;4.10;99.90;;;;;;5099567;28;20117;-76
2023/01/18 13:19:05;;;;;;;11.32;8.05;;;4.10;99.90;;;;;;5108845;28;20137;-74
2023/01/18 13:21:59;;;;;;;13.95;8.60;;;4.10;99.90;;;;;;5075326;28;20044;-68
2023/01/18 13:24:43;;;;;;;11.55;7.90;;;4.10;99.90;;;;;;5107749;28;20055;-68
2023/01/18 13:27:26;;;;;;;13.43;8.60;;;4.10;99.90;;;;;;5100718;27;20138;-70
2023/01/18 13:29:56;;;;;;;13.05;8.13;;;4.10;99.90;;;;;;5100311;28;20044;-68
2023/01/18 13:32:29;;;;;;;12.63;8.52;;;4.10;99.90;;;;;;5090858;28;20073;-75
2023/01/18 13:35:01;;;;;;;;;;;4.10;99.90;;;;;;5112394;28;20495;-75
2023/01/18 13:37:44;;;;;;;13.95;8.48;;;4.10;99.90;;;;;;5127122;27;19923;-74
2023/01/18 13:40:27;;;;;;;14.07;9.48;;;4.20;99.90;;;;;;5090134;28;20051;-75
2023/01/18 13:42:55;;;;;;;15.77;11.40;;;4.10;99.90;;;;;;5103863;28;20082;-77
2023/01/18 13:45:25;;;;;;;14.15;9.07;;;4.20;99.90;;;;;;5101957;28;20052;-75
2023/01/18 13:47:56;;;;;;;15.27;9.13;;;4.20;99.90;;;;;;5109976;28;20510;-75
2023/01/18 13:50:44;;;;;;;13.73;9.45;;;4.10;99.90;;;;;;5104471;28;20591;-74
2023/01/18 13:53:25;;;;;;;16.00;9.48;;;4.00;99.90;;;;;;5102917;27;20412;-75